sensor_id;sensor_type;location;lat;lon;timestamp;pressure;altitude;pressure_sealevel;temperature;humidity
46778;BME280;32536;47.128;8.746;2022-12-07T00:01:35;91470.34;;;2.61;56.18
46778;BME280;32536;47.128;8.746;2022-12-07T00:04:06;91480.28;;;2.71;56.00
46778;BME280;32536;47.128;8.746;2022-12-07T00:06:39;91491.75;;;2.79;55.77
46778;BME280;32536;47.128;8.746;2022-12-07T00:09:10;91475.88;;;2.79;55.98
46778;BME280;32536;47.128;8.746;2022-12-07T00:11:41;91477.34;;;2.76;55.98
46778;BME280;32536;47.128;8.746;2022-12-07T00:14:12;91476.47;;;2.68;56.64
46778;BME280;32536;47.128;8.746;2022-12-07T00:16:40;91473.75;;;2.61;56.33
46778;BME280;32536;47.128;8.746;2022-12-07T00:19:08;91475.59;;;2.57;56.24
46778;BME280;32536;47.128;8.746;2022-12-07T00:21:36;91475.19;;;2.55;55.90
46778;BME280;32536;47.128;8.746;2022-12-07T00:24:04;91480.06;;;2.53;55.53
46778;BME280;32536;47.128;8.746;2022-12-07T00:26:37;91481.66;;;2.58;56.12
46778;BME280;32536;47.128;8.746;2022-12-07T00:29:12;91472.25;;;2.60;55.31
46778;BME280;32536;47.128;8.746;2022-12-07T00:31:42;91470.34;;;2.61;55.91
46778;BME280;32536;47.128;8.746;2022-12-07T00:34:15;91464.91;;;2.50;56.35
46778;BME280;32536;47.128;8.746;2022-12-07T00:36:43;91465.94;;;2.42;55.73
46778;BME280;32536;47.128;8.746;2022-12-07T00:39:10;91466.19;;;2.33;55.99
46778;BME280;32536;47.128;8.746;2022-12-07T00:41:36;91466.50;;;2.28;55.92
46778;BME280;32536;47.128;8.746;2022-12-07T00:44:03;91465.69;;;2.23;56.17
46778;BME280;32536;47.128;8.746;2022-12-07T00:46:30;91470.16;;;2.19;56.32
46778;BME280;32536;47.128;8.746;2022-12-07T00:48:57;91470.16;;;2.19;56.35
46778;BME280;32536;47.128;8.746;2022-12-07T00:51:25;91469.78;;;2.21;56.16
46778;BME280;32536;47.128;8.746;2022-12-07T00:53:52;91462.28;;;2.23;56.13
46778;BME280;32536;47.128;8.746;2022-12-07T00:56:22;91465.69;;;2.23;56.14
46778;BME280;32536;47.128;8.746;2022-12-07T00:58:54;91461.97;;;2.28;56.06
46778;BME280;32536;47.128;8.746;2022-12-07T01:01:25;91455.22;;;2.31;55.71
46778;BME280;32536;47.128;8.746;2022-12-07T01:03:53;91450.75;;;2.35;55.47
46778;BME280;32536;47.128;8.746;2022-12-07T01:06:21;91452.28;;;2.36;55.78
46778;BME280;32536;47.128;8.746;2022-12-07T01:08:49;91453.50;;;2.42;55.76
46778;BME280;32536;47.128;8.746;2022-12-07T01:11:19;91454.59;;;2.41;55.49
46778;BME280;32536;47.128;8.746;2022-12-07T01:13:51;91463.28;;;2.42;55.44
46778;BME280;32536;47.128;8.746;2022-12-07T01:16:19;91462.53;;;2.41;55.88
46778;BME280;32536;47.128;8.746;2022-12-07T01:18:48;91457.91;;;2.34;55.58
46778;BME280;32536;47.128;8.746;2022-12-07T01:21:28;91462.44;;;2.34;55.85
46778;BME280;32536;47.128;8.746;2022-12-07T01:23:58;91462.84;;;2.36;55.75
46778;BME280;32536;47.128;8.746;2022-12-07T01:26:25;91462.53;;;2.41;55.30
46778;BME280;32536;47.128;8.746;2022-12-07T01:28:52;91467.50;;;2.46;55.70
46778;BME280;32536;47.128;8.746;2022-12-07T01:31:22;91468.25;;;2.43;55.63
46778;BME280;32536;47.128;8.746;2022-12-07T01:33:53;91475.69;;;2.37;55.76
46778;BME280;32536;47.128;8.746;2022-12-07T01:38:56;91472.53;;;2.28;55.57
46778;BME280;32536;47.128;8.746;2022-12-07T01:41:27;91480.09;;;2.26;55.87
46778;BME280;32536;47.128;8.746;2022-12-07T01:44:18;91469.50;;;2.26;55.91
46778;BME280;32536;47.128;8.746;2022-12-07T01:46:54;91470.69;;;2.29;56.02
46778;BME280;32536;47.128;8.746;2022-12-07T01:49:48;91464.66;;;2.32;56.46
46778;BME280;32536;47.128;8.746;2022-12-07T01:52:28;91462.91;;;2.39;56.32
46778;BME280;32536;47.128;8.746;2022-12-07T01:55:06;91459.19;;;2.44;55.65
46778;BME280;32536;47.128;8.746;2022-12-07T01:57:37;91463.34;;;2.45;55.38
46778;BME280;32536;47.128;8.746;2022-12-07T02:00:08;91462.22;;;2.46;55.21
46778;BME280;32536;47.128;8.746;2022-12-07T02:02:45;91464.47;;;2.44;55.06
46778;BME280;32536;47.128;8.746;2022-12-07T02:05:43;91451.53;;;2.39;55.85
46778;BME280;32536;47.128;8.746;2022-12-07T02:08:10;91450.78;;;2.38;55.46
46778;BME280;32536;47.128;8.746;2022-12-07T02:10:39;91455.34;;;2.42;55.06
46778;BME280;32536;47.128;8.746;2022-12-07T02:13:13;91447.41;;;2.42;55.10
46778;BME280;32536;47.128;8.746;2022-12-07T02:19:33;91445.88;;;2.37;55.04
46778;BME280;32536;47.128;8.746;2022-12-07T02:28:31;91451.91;;;2.37;54.95
46778;BME280;32536;47.128;8.746;2022-12-07T02:31:06;91452.00;;;2.45;54.99
46778;BME280;32536;47.128;8.746;2022-12-07T02:33:41;91453.53;;;2.46;54.65
46778;BME280;32536;47.128;8.746;2022-12-07T02:36:26;91456.97;;;2.50;54.45
46778;BME280;32536;47.128;8.746;2022-12-07T02:38:59;91445.28;;;2.51;54.54
46778;BME280;32536;47.128;8.746;2022-12-07T02:41:57;91447.22;;;2.54;54.63
46778;BME280;32536;47.128;8.746;2022-12-07T02:44:29;91438.94;;;2.55;54.58
46778;BME280;32536;47.128;8.746;2022-12-07T02:47:01;91435.13;;;2.53;54.90
46778;BME280;32536;47.128;8.746;2022-12-07T02:49:31;91443.06;;;2.53;54.43
46778;BME280;32536;47.128;8.746;2022-12-07T02:51:58;91437.44;;;2.58;54.62
46778;BME280;32536;47.128;8.746;2022-12-07T02:54:24;91439.03;;;2.63;54.90
46778;BME280;32536;47.128;8.746;2022-12-07T02:57:07;91442.47;;;2.67;54.76
46778;BME280;32536;47.128;8.746;2022-12-07T03:00:08;91437.97;;;2.71;54.78
46778;BME280;32536;47.128;8.746;2022-12-07T03:05:58;91434.28;;;2.79;54.53
46778;BME280;32536;47.128;8.746;2022-12-07T03:09:01;91428.28;;;2.82;54.53
46778;BME280;32536;47.128;8.746;2022-12-07T03:11:45;91433.94;;;2.81;54.41
46778;BME280;32536;47.128;8.746;2022-12-07T03:14:22;91435.44;;;2.82;54.54
46778;BME280;32536;47.128;8.746;2022-12-07T03:16:53;91426.44;;;2.86;54.76
46778;BME280;32536;47.128;8.746;2022-12-07T03:19:40;91421.59;;;2.92;54.48
46778;BME280;32536;47.128;8.746;2022-12-07T03:22:11;91415.22;;;2.97;54.41
46778;BME280;32536;47.128;8.746;2022-12-07T03:24:49;91416.78;;;3.01;54.41
46778;BME280;32536;47.128;8.746;2022-12-07T03:27:24;91422.09;;;3.05;54.39
46778;BME280;32536;47.128;8.746;2022-12-07T03:29:58;91420.97;;;3.06;54.49
46778;BME280;32536;47.128;8.746;2022-12-07T03:32:53;91416.47;;;3.07;54.62
46778;BME280;32536;47.128;8.746;2022-12-07T03:35:43;91407.72;;;3.02;54.35
46778;BME280;32536;47.128;8.746;2022-12-07T03:38:29;91414.13;;;3.01;54.85
46778;BME280;32536;47.128;8.746;2022-12-07T03:41:07;91407.00;;;3.06;54.67
46778;BME280;32536;47.128;8.746;2022-12-07T03:43:39;91412.72;;;3.11;54.60
46778;BME280;32536;47.128;8.746;2022-12-07T03:46:09;91408.19;;;3.12;54.29
46778;BME280;32536;47.128;8.746;2022-12-07T03:49:18;91416.53;;;3.14;54.39
46778;BME280;32536;47.128;8.746;2022-12-07T03:54:28;91416.25;;;3.23;54.46
46778;BME280;32536;47.128;8.746;2022-12-07T03:56:58;91415.13;;;3.24;54.33
46778;BME280;32536;47.128;8.746;2022-12-07T03:59:25;91408.34;;;3.26;54.21
46778;BME280;32536;47.128;8.746;2022-12-07T04:02:01;91410.63;;;3.28;54.30
46778;BME280;32536;47.128;8.746;2022-12-07T04:04:29;91413.69;;;3.33;54.42
46778;BME280;32536;47.128;8.746;2022-12-07T04:06:56;91415.22;;;3.34;54.56
46778;BME280;32536;47.128;8.746;2022-12-07T04:09:23;91419.81;;;3.41;54.70
46778;BME280;32536;47.128;8.746;2022-12-07T04:11:50;91424.78;;;3.46;55.24
46778;BME280;32536;47.128;8.746;2022-12-07T04:14:17;91420.66;;;3.52;54.97
46778;BME280;32536;47.128;8.746;2022-12-07T04:16:55;91423.72;;;3.55;54.98
46778;BME280;32536;47.128;8.746;2022-12-07T04:19:26;91419.59;;;3.57;55.10
46778;BME280;32536;47.128;8.746;2022-12-07T04:21:58;91423.00;;;3.61;55.07
46778;BME280;32536;47.128;8.746;2022-12-07T04:24:26;91423.44;;;3.67;55.12
46778;BME280;32536;47.128;8.746;2022-12-07T04:26:53;91422.75;;;3.74;55.09
46778;BME280;32536;47.128;8.746;2022-12-07T04:29:21;91415.59;;;3.78;54.86
46778;BME280;32536;47.128;8.746;2022-12-07T04:31:48;91421.28;;;3.80;54.93
46778;BME280;32536;47.128;8.746;2022-12-07T04:34:16;91418.25;;;3.78;54.63
46778;BME280;32536;47.128;8.746;2022-12-07T04:36:44;91419.00;;;3.78;54.77
46778;BME280;32536;47.128;8.746;2022-12-07T04:39:23;91420.50;;;3.79;54.04
46778;BME280;32536;47.128;8.746;2022-12-07T04:41:52;91417.16;;;3.82;54.52
46778;BME280;32536;47.128;8.746;2022-12-07T04:44:20;91423.16;;;3.79;54.38
46778;BME280;32536;47.128;8.746;2022-12-07T04:46:48;91421.28;;;3.80;54.15
46778;BME280;32536;47.128;8.746;2022-12-07T04:49:15;91424.31;;;3.82;54.02
46778;BME280;32536;47.128;8.746;2022-12-07T04:51:43;91423.56;;;3.81;54.15
46778;BME280;32536;47.128;8.746;2022-12-07T04:54:11;91417.16;;;3.82;53.83
46778;BME280;32536;47.128;8.746;2022-12-07T04:56:39;91418.66;;;3.80;53.96
46778;BME280;32536;47.128;8.746;2022-12-07T04:59:07;91428.13;;;3.81;54.28
46778;BME280;32536;47.128;8.746;2022-12-07T05:01:34;91427.75;;;3.82;54.16
46778;BME280;32536;47.128;8.746;2022-12-07T05:04:01;91423.97;;;3.83;54.58
46778;BME280;32536;47.128;8.746;2022-12-07T05:06:28;91423.59;;;3.85;54.56
46778;BME280;32536;47.128;8.746;2022-12-07T05:08:55;91427.81;;;3.90;54.62
46778;BME280;32536;47.128;8.746;2022-12-07T05:11:22;91425.19;;;3.93;54.87
46778;BME280;32536;47.128;8.746;2022-12-07T05:14:15;91427.84;;;3.97;54.82
46778;BME280;32536;47.128;8.746;2022-12-07T05:16:44;91428.63;;;4.01;54.80
46778;BME280;32536;47.128;8.746;2022-12-07T05:19:13;91429.44;;;4.09;55.01
46778;BME280;32536;47.128;8.746;2022-12-07T05:21:40;91427.59;;;4.13;54.83
46778;BME280;32536;47.128;8.746;2022-12-07T05:24:09;91422.66;;;4.15;54.73
46778;BME280;32536;47.128;8.746;2022-12-07T05:26:37;91430.25;;;4.16;54.72
46778;BME280;32536;47.128;8.746;2022-12-07T05:29:03;91425.69;;;4.13;54.38
46778;BME280;32536;47.128;8.746;2022-12-07T05:31:31;91427.56;;;4.09;54.53
46778;BME280;32536;47.128;8.746;2022-12-07T05:33:58;91430.22;;;4.09;54.70
46778;BME280;32536;47.128;8.746;2022-12-07T05:36:24;91427.56;;;4.09;54.30
46778;BME280;32536;47.128;8.746;2022-12-07T05:38:54;91411.63;;;4.06;54.11
46778;BME280;32536;47.128;8.746;2022-12-07T05:41:21;91423.72;;;4.03;54.07
46778;BME280;32536;47.128;8.746;2022-12-07T05:44:06;91420.31;;;4.03;54.28
46778;BME280;32536;47.128;8.746;2022-12-07T05:46:33;91421.84;;;4.04;54.26
46778;BME280;32536;47.128;8.746;2022-12-07T05:49:00;91426.75;;;4.05;54.07
46778;BME280;32536;47.128;8.746;2022-12-07T05:51:27;91419.22;;;4.07;54.04
46778;BME280;32536;47.128;8.746;2022-12-07T05:53:54;91424.91;;;4.09;53.81
46778;BME280;32536;47.128;8.746;2022-12-07T05:56:21;91428.31;;;4.10;54.16
46778;BME280;32536;47.128;8.746;2022-12-07T05:58:48;91424.50;;;4.07;54.06
46778;BME280;32536;47.128;8.746;2022-12-07T06:01:33;91427.19;;;4.11;54.12
46778;BME280;32536;47.128;8.746;2022-12-07T06:04:00;91428.34;;;4.13;53.97
46778;BME280;32536;47.128;8.746;2022-12-07T06:06:27;91425.31;;;4.15;54.46
46778;BME280;32536;47.128;8.746;2022-12-07T06:08:54;91424.97;;;4.16;54.20
46778;BME280;32536;47.128;8.746;2022-12-07T06:11:20;91434.03;;;4.15;54.20
46778;BME280;32536;47.128;8.746;2022-12-07T06:14:05;91431.78;;;4.18;54.07
46778;BME280;32536;47.128;8.746;2022-12-07T06:16:32;91423.84;;;4.18;54.11
46778;BME280;32536;47.128;8.746;2022-12-07T06:18:59;91427.97;;;4.15;53.76
46778;BME280;32536;47.128;8.746;2022-12-07T06:21:26;91425.69;;;4.13;54.24
46778;BME280;32536;47.128;8.746;2022-12-07T06:23:53;91418.50;;;4.14;54.33
46778;BME280;32536;47.128;8.746;2022-12-07T06:26:21;91423.81;;;4.14;54.28
46778;BME280;32536;47.128;8.746;2022-12-07T06:28:48;91423.03;;;4.13;54.33
46778;BME280;32536;47.128;8.746;2022-12-07T06:31:14;91422.31;;;4.16;54.23
46778;BME280;32536;47.128;8.746;2022-12-07T06:33:42;91426.09;;;4.19;54.43
46778;BME280;32536;47.128;8.746;2022-12-07T06:36:09;91423.09;;;4.21;54.39
46778;BME280;32536;47.128;8.746;2022-12-07T06:38:36;91419.72;;;4.24;54.45
46778;BME280;32536;47.128;8.746;2022-12-07T06:41:03;91425.75;;;4.24;54.35
46778;BME280;32536;47.128;8.746;2022-12-07T06:43:30;91417.44;;;4.26;54.30
46778;BME280;32536;47.128;8.746;2022-12-07T06:45:57;91422.00;;;4.29;54.28
46778;BME280;32536;47.128;8.746;2022-12-07T06:48:24;91424.69;;;4.32;54.23
46778;BME280;32536;47.128;8.746;2022-12-07T06:50:51;91416.34;;;4.34;54.54
46778;BME280;32536;47.128;8.746;2022-12-07T06:53:17;91417.50;;;4.40;54.36
46778;BME280;32536;47.128;8.746;2022-12-07T06:55:44;91421.72;;;4.45;54.50
46778;BME280;32536;47.128;8.746;2022-12-07T06:58:11;91421.75;;;4.52;54.53
46778;BME280;32536;47.128;8.746;2022-12-07T07:00:37;91421.78;;;4.56;54.50
46778;BME280;32536;47.128;8.746;2022-12-07T07:03:04;91427.09;;;4.59;54.60
46778;BME280;32536;47.128;8.746;2022-12-07T07:06:01;91421.03;;;4.62;53.99
46778;BME280;32536;47.128;8.746;2022-12-07T07:08:28;91425.59;;;4.65;54.35
46778;BME280;32536;47.128;8.746;2022-12-07T07:10:54;91426.00;;;4.64;54.08
46778;BME280;32536;47.128;8.746;2022-12-07T07:13:21;91431.66;;;4.62;54.12
46778;BME280;32536;47.128;8.746;2022-12-07T07:15:48;91435.06;;;4.63;54.55
46778;BME280;32536;47.128;8.746;2022-12-07T07:18:15;91426.00;;;4.64;54.57
46778;BME280;32536;47.128;8.746;2022-12-07T07:20:41;91436.25;;;4.69;54.29
46778;BME280;32536;47.128;8.746;2022-12-07T07:23:09;91431.69;;;4.70;54.31
46778;BME280;32536;47.128;8.746;2022-12-07T07:25:35;91434.00;;;4.71;54.17
46778;BME280;32536;47.128;8.746;2022-12-07T07:28:03;91435.47;;;4.72;53.95
46778;BME280;32536;47.128;8.746;2022-12-07T07:30:30;91423.00;;;4.73;54.01
46778;BME280;32536;47.128;8.746;2022-12-07T07:33:01;91426.00;;;4.68;54.02
46778;BME280;32536;47.128;8.746;2022-12-07T07:35:32;91432.03;;;4.64;54.24
46778;BME280;32536;47.128;8.746;2022-12-07T07:38:00;91428.25;;;4.62;54.24
46778;BME280;32536;47.128;8.746;2022-12-07T07:40:27;91428.59;;;4.57;54.26
46778;BME280;32536;47.128;8.746;2022-12-07T07:42:57;91431.22;;;4.49;54.12
46778;BME280;32536;47.128;8.746;2022-12-07T07:45:25;91432.34;;;4.48;54.42
46778;BME280;32536;47.128;8.746;2022-12-07T07:47:52;91431.22;;;4.49;54.47
46778;BME280;32536;47.128;8.746;2022-12-07T07:50:20;91433.88;;;4.49;54.52
46778;BME280;32536;47.128;8.746;2022-12-07T07:52:47;91439.56;;;4.48;54.32
46778;BME280;32536;47.128;8.746;2022-12-07T07:55:14;91438.78;;;4.47;54.46
46778;BME280;32536;47.128;8.746;2022-12-07T07:57:40;91439.19;;;4.49;54.71
46778;BME280;32536;47.128;8.746;2022-12-07T08:00:10;91439.56;;;4.48;54.29
46778;BME280;32536;47.128;8.746;2022-12-07T08:02:40;91441.81;;;4.49;54.61
46778;BME280;32536;47.128;8.746;2022-12-07T08:05:09;91438.06;;;4.54;54.65
46778;BME280;32536;47.128;8.746;2022-12-07T08:07:37;91444.91;;;4.59;54.80
46778;BME280;32536;47.128;8.746;2022-12-07T08:10:05;91444.91;;;4.62;54.33
46778;BME280;32536;47.128;8.746;2022-12-07T08:12:36;91446.06;;;4.65;54.43
46778;BME280;32536;47.128;8.746;2022-12-07T08:15:24;91460.88;;;4.70;54.38
46778;BME280;32536;47.128;8.746;2022-12-07T08:17:52;91457.47;;;4.69;54.52
46778;BME280;32536;47.128;8.746;2022-12-07T08:20:20;91454.44;;;4.71;54.37
46778;BME280;32536;47.128;8.746;2022-12-07T08:22:46;91453.69;;;4.70;54.46
46778;BME280;32536;47.128;8.746;2022-12-07T08:25:13;91455.56;;;4.70;54.42
46778;BME280;32536;47.128;8.746;2022-12-07T08:27:40;91459.34;;;4.69;54.49
46778;BME280;32536;47.128;8.746;2022-12-07T08:30:07;91453.69;;;4.70;54.58
46778;BME280;32536;47.128;8.746;2022-12-07T08:32:34;91454.03;;;4.69;54.63
46778;BME280;32536;47.128;8.746;2022-12-07T08:35:01;91455.19;;;4.68;54.67
46778;BME280;32536;47.128;8.746;2022-12-07T08:37:27;91453.69;;;4.70;54.85
46778;BME280;32536;47.128;8.746;2022-12-07T08:39:54;91454.44;;;4.71;54.74
46778;BME280;32536;47.128;8.746;2022-12-07T08:42:21;91456.34;;;4.70;54.70
46778;BME280;32536;47.128;8.746;2022-12-07T08:44:48;91452.94;;;4.73;54.50
46778;BME280;32536;47.128;8.746;2022-12-07T08:47:15;91460.53;;;4.71;54.68
46778;BME280;32536;47.128;8.746;2022-12-07T08:49:46;91455.94;;;4.68;54.79
46778;BME280;32536;47.128;8.746;2022-12-07T08:52:13;91454.81;;;4.69;54.65
46778;BME280;32536;47.128;8.746;2022-12-07T08:54:40;91458.63;;;4.72;54.55
46778;BME280;32536;47.128;8.746;2022-12-07T08:57:09;91448.75;;;4.72;54.65
46778;BME280;32536;47.128;8.746;2022-12-07T08:59:37;91450.69;;;4.75;54.53
46778;BME280;32536;47.128;8.746;2022-12-07T09:02:05;91449.91;;;4.78;54.28
46778;BME280;32536;47.128;8.746;2022-12-07T09:04:32;91449.94;;;4.82;54.64
46778;BME280;32536;47.128;8.746;2022-12-07T09:06:59;91456.78;;;4.87;54.51
46778;BME280;32536;47.128;8.746;2022-12-07T09:09:26;91453.41;;;4.90;54.47
46778;BME280;32536;47.128;8.746;2022-12-07T09:11:52;91453.78;;;4.92;54.63
46778;BME280;32536;47.128;8.746;2022-12-07T09:14:19;91454.56;;;4.96;54.62
46778;BME280;32536;47.128;8.746;2022-12-07T09:16:46;91453.44;;;4.97;54.56
46778;BME280;32536;47.128;8.746;2022-12-07T09:19:13;91449.28;;;5.00;54.76
46778;BME280;32536;47.128;8.746;2022-12-07T09:21:39;91451.53;;;5.01;54.82
46778;BME280;32536;47.128;8.746;2022-12-07T09:24:07;91454.59;;;5.03;55.06
46778;BME280;32536;47.128;8.746;2022-12-07T09:26:35;91464.84;;;5.08;54.84
46778;BME280;32536;47.128;8.746;2022-12-07T09:29:02;91460.31;;;5.12;54.95
46778;BME280;32536;47.128;8.746;2022-12-07T09:31:29;91458.81;;;5.15;54.88
46778;BME280;32536;47.128;8.746;2022-12-07T09:33:58;91460.72;;;5.18;54.73
46778;BME280;32536;47.128;8.746;2022-12-07T09:36:26;91453.50;;;5.19;54.64
46778;BME280;32536;47.128;8.746;2022-12-07T09:38:53;91460.31;;;5.16;54.63
46778;BME280;32536;47.128;8.746;2022-12-07T09:41:21;91465.25;;;5.14;54.83
46778;BME280;32536;47.128;8.746;2022-12-07T09:43:50;91466.00;;;5.15;55.12
46778;BME280;32536;47.128;8.746;2022-12-07T09:46:19;91461.09;;;5.17;54.59
46778;BME280;32536;47.128;8.746;2022-12-07T09:48:47;91453.88;;;5.17;54.75
46778;BME280;32536;47.128;8.746;2022-12-07T09:51:21;91456.91;;;5.16;54.55
46778;BME280;32536;47.128;8.746;2022-12-07T09:53:49;91454.66;;;5.18;54.98
46778;BME280;32536;47.128;8.746;2022-12-07T09:56:18;91453.50;;;5.19;54.86
46778;BME280;32536;47.128;8.746;2022-12-07T09:58:46;91450.84;;;5.19;54.59
46778;BME280;32536;47.128;8.746;2022-12-07T10:01:16;91453.88;;;5.17;54.68
46778;BME280;32536;47.128;8.746;2022-12-07T10:03:54;91447.81;;;5.13;54.63
46778;BME280;32536;47.128;8.746;2022-12-07T10:06:34;91439.06;;;5.12;54.71
46778;BME280;32536;47.128;8.746;2022-12-07T10:09:01;91447.03;;;5.16;54.89
46778;BME280;32536;47.128;8.746;2022-12-07T10:11:33;91438.34;;;5.23;54.52
46778;BME280;32536;47.128;8.746;2022-12-07T10:14:12;91440.25;;;5.29;54.43
46778;BME280;32536;47.128;8.746;2022-12-07T10:16:41;91436.47;;;5.38;54.72
46778;BME280;32536;47.128;8.746;2022-12-07T10:19:32;91438.75;;;5.43;54.34
46778;BME280;32536;47.128;8.746;2022-12-07T10:22:11;91431.19;;;5.49;54.63
46778;BME280;32536;47.128;8.746;2022-12-07T10:24:40;91438.78;;;5.57;54.72
46778;BME280;32536;47.128;8.746;2022-12-07T10:27:29;91429.69;;;5.62;54.28
46778;BME280;32536;47.128;8.746;2022-12-07T10:29:58;91431.97;;;5.71;54.55
46778;BME280;32536;47.128;8.746;2022-12-07T10:32:35;91431.59;;;5.76;54.66
46778;BME280;32536;47.128;8.746;2022-12-07T10:35:28;91424.78;;;5.79;54.41
46778;BME280;32536;47.128;8.746;2022-12-07T10:37:58;91428.94;;;5.83;54.17
46778;BME280;32536;47.128;8.746;2022-12-07T10:43:01;91422.88;;;5.86;54.41
46778;BME280;32536;47.128;8.746;2022-12-07T10:48:30;91424.41;;;5.87;54.38
46778;BME280;32536;47.128;8.746;2022-12-07T10:51:21;91417.56;;;5.83;54.22
46778;BME280;32536;47.128;8.746;2022-12-07T10:56:58;91404.66;;;5.63;54.59
46778;BME280;32536;47.128;8.746;2022-12-07T11:05:38;91403.47;;;5.42;54.98
46778;BME280;32536;47.128;8.746;2022-12-07T11:08:55;91389.44;;;5.38;55.63
46778;BME280;32536;47.128;8.746;2022-12-07T11:17:14;91379.56;;;5.39;55.23
46778;BME280;32536;47.128;8.746;2022-12-07T11:31:26;91361.38;;;5.44;55.48
46778;BME280;32536;47.128;8.746;2022-12-07T11:37:13;91359.84;;;5.58;55.45
46778;BME280;32536;47.128;8.746;2022-12-07T11:39:55;91357.56;;;5.64;55.63
46778;BME280;32536;47.128;8.746;2022-12-07T11:42:37;91358.34;;;5.71;55.02
46778;BME280;32536;47.128;8.746;2022-12-07T11:45:25;91349.59;;;5.74;55.33
46778;BME280;32536;47.128;8.746;2022-12-07T11:51:06;91353.78;;;5.79;54.75
46778;BME280;32536;47.128;8.746;2022-12-07T11:53:49;91349.19;;;5.80;54.88
46778;BME280;32536;47.128;8.746;2022-12-07T11:56:28;91351.50;;;5.85;55.02
46778;BME280;32536;47.128;8.746;2022-12-07T12:01:48;91342.75;;;5.91;54.49
46778;BME280;32536;47.128;8.746;2022-12-07T12:04:30;91333.25;;;5.94;54.34
46778;BME280;32536;47.128;8.746;2022-12-07T12:07:01;91337.41;;;5.95;54.36
46778;BME280;32536;47.128;8.746;2022-12-07T12:09:34;91342.00;;;5.95;54.81
46778;BME280;32536;47.128;8.746;2022-12-07T12:22:10;91323.75;;;5.89;54.09
46778;BME280;32536;47.128;8.746;2022-12-07T12:24:46;91330.22;;;5.88;54.33
46778;BME280;32536;47.128;8.746;2022-12-07T12:27:27;91321.47;;;5.81;54.73
46778;BME280;32536;47.128;8.746;2022-12-07T12:30:00;91329.47;;;5.77;54.77
46778;BME280;32536;47.128;8.746;2022-12-07T12:32:41;91323.00;;;5.71;54.89
46778;BME280;32536;47.128;8.746;2022-12-07T12:35:36;91324.91;;;5.67;55.04
46778;BME280;32536;47.128;8.746;2022-12-07T12:38:31;91322.25;;;5.63;54.68
46778;BME280;32536;47.128;8.746;2022-12-07T12:41:01;91321.13;;;5.60;55.16
46778;BME280;32536;47.128;8.746;2022-12-07T12:43:52;91317.34;;;5.54;55.08
46778;BME280;32536;47.128;8.746;2022-12-07T12:51:58;91310.88;;;5.59;55.42
46778;BME280;32536;47.128;8.746;2022-12-07T12:54:37;91315.03;;;5.64;55.52
46778;BME280;32536;47.128;8.746;2022-12-07T12:59:57;91299.47;;;5.73;55.05
46778;BME280;32536;47.128;8.746;2022-12-07T13:02:30;91296.81;;;5.73;55.38
46778;BME280;32536;47.128;8.746;2022-12-07T13:10:42;91290.75;;;5.65;55.30
46778;BME280;32536;47.128;8.746;2022-12-07T13:15:42;91283.13;;;5.74;55.59
46778;BME280;32536;47.128;8.746;2022-12-07T13:18:35;91280.47;;;5.82;55.40
46778;BME280;32536;47.128;8.746;2022-12-07T13:29:18;91271.72;;;5.99;55.13
46778;BME280;32536;47.128;8.746;2022-12-07T13:31:51;91265.25;;;6.00;55.04
46778;BME280;32536;47.128;8.746;2022-12-07T13:37:02;91276.66;;;5.97;54.64
46778;BME280;32536;47.128;8.746;2022-12-07T13:39:57;91266.78;;;5.94;54.90
46778;BME280;32536;47.128;8.746;2022-12-07T13:42:30;91262.25;;;5.91;54.37
46778;BME280;32536;47.128;8.746;2022-12-07T13:45:13;91274.03;;;5.83;54.52
46778;BME280;32536;47.128;8.746;2022-12-07T13:47:54;91269.47;;;5.72;54.51
46778;BME280;32536;47.128;8.746;2022-12-07T13:50:29;91268.72;;;5.68;54.74
46778;BME280;32536;47.128;8.746;2022-12-07T13:53:01;91269.84;;;5.67;54.92
46778;BME280;32536;47.128;8.746;2022-12-07T13:55:33;91274.03;;;5.65;54.70
46778;BME280;32536;47.128;8.746;2022-12-07T13:58:00;91263.81;;;5.59;54.96
46778;BME280;32536;47.128;8.746;2022-12-07T14:00:28;91269.50;;;5.58;55.42
46778;BME280;32536;47.128;8.746;2022-12-07T14:05:44;91264.94;;;5.58;55.19
46778;BME280;32536;47.128;8.746;2022-12-07T14:10:54;91264.19;;;5.61;55.32
46778;BME280;32536;47.128;8.746;2022-12-07T14:14:11;91263.03;;;5.66;55.04
46778;BME280;32536;47.128;8.746;2022-12-07T14:19:03;91261.88;;;5.74;55.16
46778;BME280;32536;47.128;8.746;2022-12-07T14:21:33;91261.13;;;5.77;55.05
46778;BME280;32536;47.128;8.746;2022-12-07T14:26:46;91259.63;;;5.73;54.96
46778;BME280;32536;47.128;8.746;2022-12-07T14:31:55;91256.97;;;5.62;54.71
46778;BME280;32536;47.128;8.746;2022-12-07T14:34:23;91254.72;;;5.57;54.73
46778;BME280;32536;47.128;8.746;2022-12-07T14:36:50;91269.50;;;5.54;55.42
46778;BME280;32536;47.128;8.746;2022-12-07T14:39:17;91257.75;;;5.52;54.90
46778;BME280;32536;47.128;8.746;2022-12-07T14:41:44;91257.38;;;5.46;54.95
46778;BME280;32536;47.128;8.746;2022-12-07T14:44:21;91251.31;;;5.35;55.42
46778;BME280;32536;47.128;8.746;2022-12-07T14:46:49;91258.91;;;5.29;55.39
46778;BME280;32536;47.128;8.746;2022-12-07T14:49:17;91260.81;;;5.25;55.29
46778;BME280;32536;47.128;8.746;2022-12-07T14:51:46;91262.69;;;5.24;55.41
46778;BME280;32536;47.128;8.746;2022-12-07T14:54:16;91256.25;;;5.22;55.37
46778;BME280;32536;47.128;8.746;2022-12-07T14:56:45;91264.94;;;5.19;55.71
46778;BME280;32536;47.128;8.746;2022-12-07T14:59:16;91261.53;;;5.15;55.45
46778;BME280;32536;47.128;8.746;2022-12-07T15:01:44;91256.22;;;5.04;55.39
46778;BME280;32536;47.128;8.746;2022-12-07T15:04:11;91253.56;;;4.93;56.05
46778;BME280;32536;47.128;8.746;2022-12-07T15:06:38;91256.22;;;4.93;55.97
46778;BME280;32536;47.128;8.746;2022-12-07T15:09:05;91252.44;;;4.97;55.74
46778;BME280;32536;47.128;8.746;2022-12-07T15:11:32;91253.97;;;5.02;55.56
46778;BME280;32536;47.128;8.746;2022-12-07T15:13:59;91254.34;;;5.08;55.53
46778;BME280;32536;47.128;8.746;2022-12-07T15:16:38;91253.56;;;5.11;55.61
46778;BME280;32536;47.128;8.746;2022-12-07T15:19:12;91253.59;;;5.15;55.69
46778;BME280;32536;47.128;8.746;2022-12-07T15:21:41;91249.78;;;5.16;55.70
46778;BME280;32536;47.128;8.746;2022-12-07T15:24:12;91247.53;;;5.14;55.96
46778;BME280;32536;47.128;8.746;2022-12-07T15:26:39;91249.00;;;5.19;55.48